Aviation Digital Data Service (ADDS)

Output produced by METARs form (1253 UTC 22 March 2019)
found at http://www.aviationweather.gov/metar/data/
 
ORMM 221200Z 26006KT CAVOK 27/02 Q1014 NOSIG
TAF ORMM 221000Z 2212/2312 32006KT 8000 NSC 
     BECMG 2214/2216 030KT